• Join FlightAware (Why Join?)
  • Login
  • US Flag 
02:48PM EDT


 

Airport Tracker/Info


-or-


 

Live Flight TrackerFlight Track Log ✈ EJA588P ✈ 19-May-2013 ✈ KDAL - KIAD

Flight Track Log - Related Links

Times and Time Zones

All times are in EDT time to prevent confusion due to time zone crossing. See the EJA588P flight status page for this flight to view local times or setup timezone preferences in your user account.

Time Position Orientation Groundspeed Altitude Reporting Facility
EDT Latitude Longitude Course Direction KTS MPH feet Rate Location/Type
09:17PM 32.8333 -96.8333 90° East 152 175 1,400  Level Dallas / Fort Worth TRACON
09:17PM 32.8333 -96.8167 90° East 146 168 2,300 2,820 Climbing Dallas / Fort Worth TRACON
09:18PM 32.8167 -96.7833 121° Southeast 188 216 5,100 2,220 Climbing Dallas / Fort Worth TRACON
09:20PM 32.8747 -96.5997 69° East 264 304 10,000 1,680 Climbing Fort Worth Center
09:21PM 32.9178 -96.4853 66° East 324 373 11,100 1,800 Climbing Fort Worth Center
09:22PM 32.9544 -96.3786 68° East 350 403 13,600 2,100 Climbing Fort Worth Center
09:23PM 32.9806 -96.2669 74° East 350 403 15,400 1,980 Climbing Fort Worth Center
09:24PM 32.9961 -96.1503 81° East 350 403 17,600 2,100 Climbing Fort Worth Center
09:25PM 33.0117 -96.0286 81° East 361 415 19,600 2,040 Climbing Fort Worth Center
09:26PM 33.0289 -95.9094 80° East 366 421 21,700 1,740 Climbing Fort Worth Center
09:27PM 33.0461 -95.7803 81° East 373 429 23,100 1,380 Climbing Fort Worth Center
09:28PM 33.0633 -95.6608 80° East 384 442 24,500 1,620 Climbing Fort Worth Center
09:29PM 33.0822 -95.5317 80° East 391 450 26,400 1,920 Climbing Fort Worth Center
09:30PM 33.1181 -95.4094 71° East 391 450 28,400 1,980 Climbing Fort Worth Center
09:31PM 33.1558 -95.2869 70° East 391 450 30,400 1,860 Climbing Fort Worth Center
09:32PM 33.1911 -95.1694 70° East 386 444 32,200 1,380 Climbing Fort Worth Center
09:33PM 33.2286 -95.0467 70° East 381 438 33,200 1,200 Climbing Fort Worth Center
09:34PM 33.2617 -94.9242 72° East 386 444 34,600 1,380 Climbing Fort Worth Center
09:35PM 33.3011 -94.8064 68° East 386 444 36,000 1,200 Climbing Fort Worth Center
09:36PM 33.3361 -94.6858 71° East 386 444 37,000 1,140 Climbing Fort Worth Center
09:37PM 33.3731 -94.5606 71° East 386 444 38,300 1,200 Climbing Fort Worth Center
09:38PM 33.4097 -94.4397 70° East 392 451 39,500 1,080 Climbing Fort Worth Center
09:39PM 33.4467 -94.3167 70° East 392 451 40,500 720 Climbing Fort Worth Center
09:40PM 33.4811 -94.1958 71° East 392 451 41,000 240 Climbing Fort Worth Center
09:41PM 33.5275 -94.0569 68° East 392 451 41,000  Level Fort Worth Center
09:42PM 33.5761 -93.9256 66° East 403 464 41,000  Level Fort Worth Center
09:43PM 33.6267 -93.7939 65° Northeast 416 479 41,000  Level Fort Worth Center
09:46PM 33.7767 -93.4011 65° Northeast 421 484 41,000  Level Memphis Center
09:47PM 33.8281 -93.2678 65° Northeast 421 484 41,000  Level Memphis Center
09:48PM 33.8769 -93.1369 66° East 426 490 41,000  Level Memphis Center
09:49PM 33.9278 -93.0058 65° Northeast 426 490 41,000  Level Memphis Center
09:50PM 33.9783 -92.8697 66° East 431 496 41,000  Level Memphis Center
09:51PM 34.0292 -92.7381 65° Northeast 431 496 41,000  Level Memphis Center
09:52PM 34.0753 -92.6017 68° East 431 496 41,000  Level Memphis Center
09:53PM 34.1258 -92.4675 65° Northeast 431 496 41,000  Level Memphis Center
09:54PM 34.1739 -92.3331 67° East 431 496 41,000  Level Memphis Center
09:55PM 34.2239 -92.2036 65° Northeast 431 496 41,000  Level Memphis Center
09:56PM 34.2739 -92.0664 66° East 431 496 41,000  Level Memphis Center
09:57PM 34.3172 -91.9464 66° East 432 497 41,000  Level Memphis Center
09:58PM 34.3667 -91.8114 66° East 432 497 41,000  Level Memphis Center
09:59PM 34.4161 -91.6839 65° Northeast 432 497 41,000  Level Memphis Center
10:00PM 34.4675 -91.5486 65° Northeast 427 491 41,000  Level Memphis Center
10:01PM 34.5189 -91.4008 67° East 427 491 41,000  Level Memphis Center
10:02PM 34.5658 -91.2675 67° East 432 497 41,000  Level Memphis Center
10:03PM 34.6147 -91.1319 66° East 432 497 41,000  Level Memphis Center
10:04PM 34.6614 -90.9983 67° East 432 497 41,000  Level Memphis Center
10:05PM 34.7081 -90.8650 67° East 432 497 41,000  Level Memphis Center
10:06PM 34.7586 -90.7286 66° East 432 497 41,000  Level Memphis Center
10:07PM 34.8069 -90.5897 67° East 437 503 41,000  Level Memphis Center
10:08PM 34.8531 -90.4558 67° East 432 497 41,000  Level Memphis Center
10:09PM 34.8967 -90.3344 66° East 432 497 41,000  Level Memphis Center
10:10PM 34.9447 -90.2000 66° East 432 497 41,000  Level Memphis Center
10:11PM 34.9925 -90.0631 67° East 432 497 41,000  Level Memphis Center
10:12PM 35.0419 -89.9258 66° East 437 503 41,000  Level Memphis Center
10:13PM 35.0978 -89.7708 66° East 442 509 41,000  Level Memphis Center
10:14PM 35.1450 -89.6308 68° East 441 507 41,000  Level Memphis Center
10:15PM 35.1942 -89.4906 67° East 441 507 41,000  Level Memphis Center
10:16PM 35.2411 -89.3528 67° East 441 507 41,000  Level Memphis Center
10:17PM 35.2878 -89.2175 67° East 435 501 41,000  Level Memphis Center
10:18PM 35.3344 -89.0819 67° East 435 501 41,000  Level Memphis Center
10:19PM 35.3769 -88.9617 67° East 435 501 41,000  Level Memphis Center
10:20PM 35.4256 -88.8258 66° East 435 501 41,000  Level Memphis Center
10:21PM 35.4675 -88.6925 69° East 430 495 41,000  Level Memphis Center
10:22PM 35.5158 -88.5561 66° East 425 489 41,000  Level Memphis Center
10:23PM 35.5594 -88.4225 68° East 420 483 41,000  Level Memphis Center
10:24PM 35.6075 -88.2861 67° East 420 483 41,000  Level Memphis Center
10:25PM 35.6531 -88.1522 67° East 420 483 41,000  Level Memphis Center
10:26PM 35.7008 -88.0206 66° East 415 478 41,000  Level Memphis Center
10:27PM 35.7478 -87.8733 69° East 426 490 41,000  Level Memphis Center
10:28PM 35.7950 -87.7361 67° East 431 496 41,000  Level Memphis Center
10:29PM 35.8400 -87.5992 68° East 431 496 41,000  Level Memphis Center
10:30PM 35.8850 -87.4592 68° East 436 502 41,000  Level Memphis Center
10:31PM 35.9275 -87.3244 69° East 431 496 41,000  Level Memphis Center
10:32PM 35.9742 -87.1869 67° East 431 496 41,000  Level Memphis Center
10:33PM 36.0186 -87.0492 68° East 431 496 41,000  Level Memphis Center
10:34PM 36.0606 -86.9114 69° East 431 496 41,000  Level Memphis Center
10:35PM 36.1047 -86.7708 69° East 431 496 41,000  Level Memphis Center
10:36PM 36.1569 -86.6347 65° Northeast 436 502 41,000  Level Memphis Center
10:37PM 36.2178 -86.5086 59° Northeast 436 502 41,000  Level Memphis Center
10:38PM 36.2806 -86.3844 58° Northeast 428 493 41,000  Level Memphis Center
10:39PM 36.3431 -86.2553 59° Northeast 422 486 41,000  Level Memphis Center
10:40PM 36.4033 -86.1258 60° Northeast 422 486 41,000  Level Memphis Center
10:42PM 36.5069 -85.9133 59° Northeast 437 503 41,000  Level Indianapolis Center
10:43PM 36.5783 -85.7650 59° Northeast 429 494 41,000  Level Indianapolis Center
10:44PM 36.6381 -85.6347 60° Northeast 431 496 41,000  Level Indianapolis Center
10:45PM 36.6989 -85.5061 59° Northeast 428 493 41,000  Level Indianapolis Center
10:46PM 36.7581 -85.3767 60° Northeast 426 490 41,000  Level Indianapolis Center
10:47PM 36.8192 -85.2472 59° Northeast 430 495 41,000  Level Indianapolis Center
10:48PM 36.8789 -85.1172 60° Northeast 430 495 41,000  Level Indianapolis Center
10:49PM 36.9394 -84.9864 60° Northeast 433 498 41,000  Level Indianapolis Center
10:50PM 37.0000 -84.8544 60° Northeast 437 503 41,000  Level Indianapolis Center
10:51PM 37.0600 -84.7258 60° Northeast 438 504 41,000  Level Indianapolis Center
10:52PM 37.1206 -84.5914 61° Northeast 443 510 41,000  Level Indianapolis Center
10:53PM 37.1911 -84.4331 61° Northeast 445 512 41,000  Level Indianapolis Center
10:54PM 37.2539 -84.2969 60° Northeast 450 518 41,000  Level Indianapolis Center
10:55PM 37.3139 -84.1611 61° Northeast 446 513 41,000  Level Indianapolis Center
10:57PM 37.3750 -84.0247 61° Northeast 446 513 41,000  Level Indianapolis Center
10:58PM 37.4383 -83.8869 60° Northeast 451 519 41,000  Level Indianapolis Center
10:59PM 37.4972 -83.7531 61° Northeast 441 507 41,000  Level Indianapolis Center
11:00PM 37.5583 -83.6158 61° Northeast 449 517 41,000  Level Indianapolis Center
11:01PM 37.6192 -83.4789 61° Northeast 453 521 41,000  Level Indianapolis Center
11:02PM 37.6786 -83.3408 61° Northeast 449 517 41,000  Level Indianapolis Center
11:03PM 37.7389 -83.2047 61° Northeast 443 510 41,000  Level Indianapolis Center
11:04PM 37.8003 -83.0603 62° Northeast 459 528 41,000  Level Indianapolis Center
11:05PM 37.8594 -82.9258 61° Northeast 438 504 41,000  Level Indianapolis Center
11:06PM 37.9178 -82.7881 62° Northeast 455 524 41,000  Level Indianapolis Center
11:07PM 37.9772 -82.6506 61° Northeast 443 510 41,000  Level Indianapolis Center
11:08PM 38.0369 -82.5103 62° Northeast 447 514 41,000  Level Indianapolis Center
11:09PM 38.0653 -82.3564 77° East 446 513 41,000  Level Indianapolis Center
11:10PM 38.0900 -82.2008 79° East 447 514 41,000  Level Indianapolis Center
11:11PM 38.1125 -82.0553 79° East 439 505 41,000  Level Indianapolis Center
11:12PM 38.1361 -81.9067 79° East 433 498 41,000  Level Indianapolis Center
11:13PM 38.1633 -81.7247 79° East 439 505 41,000  Level Indianapolis Center
11:14PM 38.1844 -81.5736 80° East 438 504 41,000  Level Indianapolis Center
11:15PM 38.2072 -81.4231 79° East 438 504 41,000 -180 Level Indianapolis Center
11:16PM 38.2294 -81.2733 79° East 435 501 40,700 -900 Descending Indianapolis Center
11:17PM 38.2519 -81.1222 79° East 438 504 39,200 -1,380 Descending Indianapolis Center
11:18PM 38.2678 -81.0108 80° East 426 490 38,200 -1,200 Descending Washington Center
11:19PM 38.2939 -80.8433 79° East 426 490 37,000 -600 Descending Washington Center
11:20PM 38.3131 -80.6939 81° East 426 490 37,000  Level Washington Center
11:21PM 38.3361 -80.5419 79° East 426 490 37,000  Level Washington Center
11:22PM 38.3567 -80.3897 80° East 426 490 37,000  Level Washington Center
11:23PM 38.3747 -80.2506 81° East 431 496 37,000 -600 Level Washington Center
11:24PM 38.3972 -80.1036 79° East 431 496 35,900 -1,680 Descending Washington Center
11:25PM 38.4172 -79.9564 80° East 425 489 33,700 -2,220 Descending Washington Center
11:26PM 38.4392 -79.8092 79° East 425 489 31,500 -2,460 Descending Washington Center
11:27PM 38.4758 -79.6494 74° East 425 489 28,900 -2,520 Descending Washington Center
11:28PM 38.5097 -79.5081 73° East 430 495 26,500 -2,520 Descending Washington Center
11:29PM 38.5394 -79.3636 75° East 425 489 23,800 -2,400 Descending Washington Center
11:30PM 38.5603 -79.2267 79° East 410 472 21,800 -2,160 Descending Washington Center
11:31PM 38.5831 -79.0894 78° East 404 465 19,600 -1,920 Descending Washington Center
11:32PM 38.6036 -78.9603 78° East 389 448 17,900 -1,740 Descending Washington Center
11:33PM 38.6258 -78.8364 77° East 369 425 16,200 -1,680 Descending Washington Center
11:34PM 38.6517 -78.7206 74° East 351 404 14,600 -1,500 Descending Washington Center
11:35PM 38.6797 -78.6047 73° East 341 392 13,300 -1,320 Descending Washington Center
11:36PM 38.7197 -78.5025 63° Northeast 330 380 12,000 -1,200 Descending Washington Center
11:37PM 38.7617 -78.4083 60° Northeast 311 358 11,000 -960 Descending Washington Center
11:38PM 38.8156 -78.3306 48° Northeast 301 346 10,100 -540 Descending Washington Center
11:39PM 38.8711 -78.2658 42° Northeast 295 339 10,000 -120 Descending Washington Center
11:40PM 38.9394 -78.1964 38° Northeast 295 339 9,900 -600 Descending Washington Center
11:41PM 39.0056 -78.1292 38° Northeast 300 345 8,800 -1,140 Descending Washington Center
11:42PM 39.0611 -78.0564 45° Northeast 300 345 7,600 -1,200 Descending Washington Center
11:44PM 39.1500 -77.8667 59° Northeast 299 344 5,100 -1,080 Descending Potomac TRACON
11:45PM 39.1500 -77.7833 90° East 263 303 4,300 -840 Descending Potomac TRACON
11:46PM 39.1667 -77.6833 78° East 258 297 3,500 -540 Descending Potomac TRACON
11:47PM 39.1500 -77.6000 104° East 260 299 3,300 -300 Descending Potomac TRACON
11:48PM 39.1333 -77.5167 104° East 254 292 3,000 -360 Descending Potomac TRACON
11:49PM 39.1167 -77.4500 108° East 237 273 2,600 -300 Descending Potomac TRACON
11:50PM 39.0667 -77.4333 165° South 186 214 2,500 -480 Descending Potomac TRACON
11:51PM 39.0333 -77.4333 180° South 130 150 1,700 -720 Descending Potomac TRACON
11:52PM 39.0000 -77.4333 180° South 111 128 1,300 -600 Descending Potomac TRACON
11:53PM 38.9667 -77.4333 180° South 115 132 700 -600 Descending Potomac TRACON